sensor_id;sensor_type;location;lat;lon;timestamp;pressure;altitude;pressure_sealevel;temperature;humidity
71344;BME280;59146;43.850;25.948;2023-12-20T00:01:02;101390.72;;;3.22;100.00
71344;BME280;59146;43.850;25.948;2023-12-20T00:03:27;101390.84;;;3.13;100.00
71344;BME280;59146;43.850;25.948;2023-12-20T00:05:53;101377.09;;;3.14;100.00
71344;BME280;59146;43.850;25.948;2023-12-20T00:08:18;101352.38;;;2.98;100.00
71344;BME280;59146;43.850;25.948;2023-12-20T00:10:44;101389.06;;;3.16;100.00
71344;BME280;59146;43.850;25.948;2023-12-20T00:13:10;101209.59;;;1.91;100.00
71344;BME280;59146;43.850;25.948;2023-12-20T00:15:35;101409.81;;;3.12;100.00
71344;BME280;59146;43.850;25.948;2023-12-20T00:18:00;101379.00;;;3.00;100.00
71344;BME280;59146;43.850;25.948;2023-12-20T00:20:26;101446.31;;;3.43;100.00
71344;BME280;59146;43.850;25.948;2023-12-20T00:22:54;101439.81;;;3.19;100.00
71344;BME280;59146;43.850;25.948;2023-12-20T00:25:19;101437.16;;;3.23;100.00
71344;BME280;59146;43.850;25.948;2023-12-20T00:27:45;101386.97;;;2.86;100.00
71344;BME280;59146;43.850;25.948;2023-12-20T00:30:10;101375.78;;;2.86;100.00
71344;BME280;59146;43.850;25.948;2023-12-20T00:32:36;101412.22;;;3.21;100.00
71344;BME280;59146;43.850;25.948;2023-12-20T00:35:01;101310.75;;;2.64;100.00
71344;BME280;59146;43.850;25.948;2023-12-20T00:37:27;101350.88;;;2.85;100.00
71344;BME280;59146;43.850;25.948;2023-12-20T00:39:52;101401.34;;;3.02;100.00
71344;BME280;59146;43.850;25.948;2023-12-20T00:42:18;101360.63;;;2.65;100.00
71344;BME280;59146;43.850;25.948;2023-12-20T00:44:43;101387.75;;;2.93;100.00
71344;BME280;59146;43.850;25.948;2023-12-20T00:47:09;101401.19;;;3.13;100.00
71344;BME280;59146;43.850;25.948;2023-12-20T00:49:34;101338.97;;;2.75;100.00
71344;BME280;59146;43.850;25.948;2023-12-20T00:52:00;101393.53;;;3.07;100.00
71344;BME280;59146;43.850;25.948;2023-12-20T00:54:25;101387.53;;;3.05;100.00
71344;BME280;59146;43.850;25.948;2023-12-20T00:56:51;101395.81;;;3.25;100.00
71344;BME280;59146;43.850;25.948;2023-12-20T00:59:16;101345.13;;;3.19;100.00
71344;BME280;59146;43.850;25.948;2023-12-20T01:01:42;101271.63;;;2.93;100.00
71344;BME280;59146;43.850;25.948;2023-12-20T01:04:07;101397.88;;;3.55;100.00
71344;BME280;59146;43.850;25.948;2023-12-20T01:06:33;101365.97;;;3.56;100.00
71344;BME280;59146;43.850;25.948;2023-12-20T01:08:58;101356.22;;;3.72;100.00
71344;BME280;59146;43.850;25.948;2023-12-20T01:11:24;101343.22;;;3.76;100.00
71344;BME280;59146;43.850;25.948;2023-12-20T01:13:49;101327.66;;;3.79;97.89
71344;BME280;59146;43.850;25.948;2023-12-20T01:16:14;101305.41;;;3.71;97.40
71344;BME280;59146;43.850;25.948;2023-12-20T01:18:40;101363.56;;;3.93;97.68
71344;BME280;59146;43.850;25.948;2023-12-20T01:21:05;101248.44;;;3.36;98.03
71344;BME280;59146;43.850;25.948;2023-12-20T01:23:32;101347.00;;;4.03;97.48
71344;BME280;59146;43.850;25.948;2023-12-20T01:25:58;101338.50;;;3.96;96.95
71344;BME280;59146;43.850;25.948;2023-12-20T01:28:25;101337.38;;;3.68;97.49
71344;BME280;59146;43.850;25.948;2023-12-20T01:30:50;101341.75;;;3.63;98.52
71344;BME280;59146;43.850;25.948;2023-12-20T01:33:16;101337.16;;;3.77;98.92
71344;BME280;59146;43.850;25.948;2023-12-20T01:35:41;101278.28;;;3.52;98.95
71344;BME280;59146;43.850;25.948;2023-12-20T01:38:07;101174.56;;;2.83;97.24
71344;BME280;59146;43.850;25.948;2023-12-20T01:40:32;101305.75;;;3.54;97.46
71344;BME280;59146;43.850;25.948;2023-12-20T01:43:07;101243.00;;;3.05;98.51
71344;BME280;59146;43.850;25.948;2023-12-20T01:45:34;101248.94;;;3.10;100.00
71344;BME280;59146;43.850;25.948;2023-12-20T01:47:59;101208.97;;;2.85;100.00
71344;BME280;59146;43.850;25.948;2023-12-20T01:50:27;101207.81;;;3.01;98.92
71344;BME280;59146;43.850;25.948;2023-12-20T01:52:55;101234.16;;;3.18;98.79
71344;BME280;59146;43.850;25.948;2023-12-20T01:55:23;101224.16;;;3.00;100.00
71344;BME280;59146;43.850;25.948;2023-12-20T01:57:49;101295.78;;;3.36;100.00
71344;BME280;59146;43.850;25.948;2023-12-20T02:00:15;101268.16;;;3.40;100.00
71344;BME280;59146;43.850;25.948;2023-12-20T02:02:42;101157.91;;;2.55;100.00
71344;BME280;59146;43.850;25.948;2023-12-20T02:05:08;101200.59;;;2.71;100.00
71344;BME280;59146;43.850;25.948;2023-12-20T02:07:34;101258.56;;;3.00;100.00
71344;BME280;59146;43.850;25.948;2023-12-20T02:10:03;101244.00;;;2.96;100.00
71344;BME280;59146;43.850;25.948;2023-12-20T02:12:31;101259.28;;;3.08;100.00
71344;BME280;59146;43.850;25.948;2023-12-20T02:14:56;101223.13;;;2.61;100.00
71344;BME280;59146;43.850;25.948;2023-12-20T02:17:22;101276.91;;;2.84;100.00
71344;BME280;59146;43.850;25.948;2023-12-20T02:19:49;101241.25;;;2.57;100.00
71344;BME280;59146;43.850;25.948;2023-12-20T02:22:15;101240.47;;;2.52;100.00
71344;BME280;59146;43.850;25.948;2023-12-20T02:24:40;101188.31;;;2.36;100.00
71344;BME280;59146;43.850;25.948;2023-12-20T02:27:07;101222.44;;;2.50;100.00
71344;BME280;59146;43.850;25.948;2023-12-20T02:29:34;101270.09;;;2.80;100.00
71344;BME280;59146;43.850;25.948;2023-12-20T02:31:59;101259.06;;;2.70;100.00
71344;BME280;59146;43.850;25.948;2023-12-20T02:34:25;101252.19;;;2.71;100.00
71344;BME280;59146;43.850;25.948;2023-12-20T02:36:50;101209.44;;;2.58;100.00
71344;BME280;59146;43.850;25.948;2023-12-20T02:39:16;101216.16;;;2.68;100.00
71344;BME280;59146;43.850;25.948;2023-12-20T02:41:41;101221.44;;;2.59;100.00
71344;BME280;59146;43.850;25.948;2023-12-20T02:44:06;101230.13;;;2.55;100.00
71344;BME280;59146;43.850;25.948;2023-12-20T02:46:32;101220.94;;;2.38;100.00
71344;BME280;59146;43.850;25.948;2023-12-20T02:48:57;101243.03;;;2.53;100.00
71344;BME280;59146;43.850;25.948;2023-12-20T02:51:23;101184.00;;;2.35;100.00
71344;BME280;59146;43.850;25.948;2023-12-20T02:53:48;101228.25;;;2.63;100.00
71344;BME280;59146;43.850;25.948;2023-12-20T02:56:13;101167.00;;;2.25;100.00
71344;BME280;59146;43.850;25.948;2023-12-20T02:58:40;101230.72;;;2.69;100.00
71344;BME280;59146;43.850;25.948;2023-12-20T03:01:05;101207.59;;;2.66;100.00
71344;BME280;59146;43.850;25.948;2023-12-20T03:03:31;101227.66;;;2.96;100.00
71344;BME280;59146;43.850;25.948;2023-12-20T03:05:57;101099.41;;;2.09;100.00
71344;BME280;59146;43.850;25.948;2023-12-20T03:08:22;101141.06;;;2.34;100.00
71344;BME280;59146;43.850;25.948;2023-12-20T03:10:48;101144.66;;;2.25;100.00
71344;BME280;59146;43.850;25.948;2023-12-20T03:13:13;101209.13;;;2.76;100.00
71344;BME280;59146;43.850;25.948;2023-12-20T03:15:39;101217.53;;;2.87;100.00
71344;BME280;59146;43.850;25.948;2023-12-20T03:18:05;101158.69;;;2.58;100.00
71344;BME280;59146;43.850;25.948;2023-12-20T03:20:31;101205.53;;;2.83;100.00
71344;BME280;59146;43.850;25.948;2023-12-20T03:23:02;101135.22;;;2.26;100.00
71344;BME280;59146;43.850;25.948;2023-12-20T03:25:28;101222.06;;;2.74;100.00
71344;BME280;59146;43.850;25.948;2023-12-20T03:27:53;101208.13;;;2.83;100.00
71344;BME280;59146;43.850;25.948;2023-12-20T03:30:19;101133.16;;;2.45;100.00
71344;BME280;59146;43.850;25.948;2023-12-20T03:32:45;101158.16;;;2.39;100.00
71344;BME280;59146;43.850;25.948;2023-12-20T03:35:11;101183.00;;;2.45;100.00
71344;BME280;59146;43.850;25.948;2023-12-20T03:37:36;101183.75;;;2.50;100.00
71344;BME280;59146;43.850;25.948;2023-12-20T03:40:02;101157.22;;;2.45;100.00
71344;BME280;59146;43.850;25.948;2023-12-20T03:42:28;101114.41;;;2.36;100.00
71344;BME280;59146;43.850;25.948;2023-12-20T03:44:53;101123.03;;;2.34;100.00
71344;BME280;59146;43.850;25.948;2023-12-20T03:47:18;101145.34;;;2.36;100.00
71344;BME280;59146;43.850;25.948;2023-12-20T03:49:44;101158.75;;;2.55;100.00
71344;BME280;59146;43.850;25.948;2023-12-20T03:52:09;101160.28;;;2.65;100.00
71344;BME280;59146;43.850;25.948;2023-12-20T03:54:35;101101.44;;;2.39;100.00
71344;BME280;59146;43.850;25.948;2023-12-20T03:57:01;101059.03;;;2.08;99.91
71344;BME280;59146;43.850;25.948;2023-12-20T03:59:26;101145.59;;;2.69;99.77
71344;BME280;59146;43.850;25.948;2023-12-20T04:01:52;101077.09;;;2.07;100.00
71344;BME280;59146;43.850;25.948;2023-12-20T04:04:17;101154.41;;;2.59;100.00
71344;BME280;59146;43.850;25.948;2023-12-20T04:06:43;101062.56;;;2.01;100.00
71344;BME280;59146;43.850;25.948;2023-12-20T04:09:08;101113.41;;;2.43;99.56
71344;BME280;59146;43.850;25.948;2023-12-20T04:11:37;101140.91;;;2.45;99.29
71344;BME280;59146;43.850;25.948;2023-12-20T04:14:02;101159.81;;;2.43;100.00
71344;BME280;59146;43.850;25.948;2023-12-20T04:16:30;101066.03;;;2.00;100.00
71344;BME280;59146;43.850;25.948;2023-12-20T04:18:55;101125.38;;;2.46;100.00
71344;BME280;59146;43.850;25.948;2023-12-20T04:21:21;101116.69;;;2.52;99.57
71344;BME280;59146;43.850;25.948;2023-12-20T04:23:46;101063.22;;;2.14;98.89
71344;BME280;59146;43.850;25.948;2023-12-20T04:26:11;101111.91;;;2.32;99.72
71344;BME280;59146;43.850;25.948;2023-12-20T04:28:37;101062.66;;;1.98;100.00
71344;BME280;59146;43.850;25.948;2023-12-20T04:31:02;101121.31;;;2.33;100.00
71344;BME280;59146;43.850;25.948;2023-12-20T04:33:28;101080.19;;;2.27;100.00
71344;BME280;59146;43.850;25.948;2023-12-20T04:35:53;101103.13;;;2.42;99.42
71344;BME280;59146;43.850;25.948;2023-12-20T04:38:19;101105.69;;;2.42;99.94
71344;BME280;59146;43.850;25.948;2023-12-20T04:40:44;101113.41;;;2.43;100.00
71344;BME280;59146;43.850;25.948;2023-12-20T04:43:09;101109.91;;;2.46;100.00
71344;BME280;59146;43.850;25.948;2023-12-20T04:45:35;101006.13;;;1.89;100.00
71344;BME280;59146;43.850;25.948;2023-12-20T04:48:01;101099.69;;;2.41;99.55
71344;BME280;59146;43.850;25.948;2023-12-20T04:50:27;101123.00;;;2.35;100.00
71344;BME280;59146;43.850;25.948;2023-12-20T04:52:52;101129.06;;;2.33;100.00
71344;BME280;59146;43.850;25.948;2023-12-20T04:55:18;101049.88;;;1.91;100.00
71344;BME280;59146;43.850;25.948;2023-12-20T04:57:43;101024.97;;;1.91;100.00
71344;BME280;59146;43.850;25.948;2023-12-20T05:00:09;101108.25;;;2.43;98.72
71344;BME280;59146;43.850;25.948;2023-12-20T05:02:36;100989.47;;;1.58;98.39
71344;BME280;59146;43.850;25.948;2023-12-20T05:05:01;101058.63;;;1.82;99.62
71344;BME280;59146;43.850;25.948;2023-12-20T05:07:27;101045.72;;;1.84;99.98
71344;BME280;59146;43.850;25.948;2023-12-20T05:09:52;101038.75;;;1.89;99.92
71344;BME280;59146;43.850;25.948;2023-12-20T05:12:18;101093.97;;;2.26;99.19
71344;BME280;59146;43.850;25.948;2023-12-20T05:14:44;101099.28;;;2.15;99.20
71344;BME280;59146;43.850;25.948;2023-12-20T05:17:09;101050.22;;;1.71;99.24
71344;BME280;59146;43.850;25.948;2023-12-20T05:19:34;101116.50;;;2.13;100.00
71344;BME280;59146;43.850;25.948;2023-12-20T05:22:01;101037.31;;;1.73;100.00
71344;BME280;59146;43.850;25.948;2023-12-20T05:24:27;101096.75;;;2.12;100.00
71344;BME280;59146;43.850;25.948;2023-12-20T05:26:53;101042.41;;;1.74;100.00
71344;BME280;59146;43.850;25.948;2023-12-20T05:29:18;101072.34;;;1.84;100.00
71344;BME280;59146;43.850;25.948;2023-12-20T05:31:43;100973.44;;;1.42;100.00
71344;BME280;59146;43.850;25.948;2023-12-20T05:34:09;101034.53;;;1.85;100.00
71344;BME280;59146;43.850;25.948;2023-12-20T05:36:34;101024.28;;;1.82;100.00
71344;BME280;59146;43.850;25.948;2023-12-20T05:39:00;101044.25;;;1.69;100.00
71344;BME280;59146;43.850;25.948;2023-12-20T05:41:25;101065.53;;;1.79;100.00
71344;BME280;59146;43.850;25.948;2023-12-20T05:43:51;101066.44;;;1.76;100.00
71344;BME280;59146;43.850;25.948;2023-12-20T05:46:16;101086.31;;;1.70;100.00
71344;BME280;59146;43.850;25.948;2023-12-20T05:48:42;101066.16;;;1.38;100.00
71344;BME280;59146;43.850;25.948;2023-12-20T05:51:07;101032.16;;;1.16;100.00
71344;BME280;59146;43.850;25.948;2023-12-20T05:53:33;101032.13;;;1.19;100.00
71344;BME280;59146;43.850;25.948;2023-12-20T05:55:58;101032.13;;;1.18;100.00
71344;BME280;59146;43.850;25.948;2023-12-20T05:58:26;101074.50;;;1.53;100.00
71344;BME280;59146;43.850;25.948;2023-12-20T06:00:52;101037.34;;;1.12;100.00
71344;BME280;59146;43.850;25.948;2023-12-20T06:03:17;101101.22;;;1.48;100.00
71344;BME280;59146;43.850;25.948;2023-12-20T06:05:43;101072.09;;;1.43;100.00
71344;BME280;59146;43.850;25.948;2023-12-20T06:08:08;101038.97;;;1.20;100.00
71344;BME280;59146;43.850;25.948;2023-12-20T06:10:34;101065.03;;;1.55;100.00
71344;BME280;59146;43.850;25.948;2023-12-20T06:12:59;101020.06;;;1.23;100.00
71344;BME280;59146;43.850;25.948;2023-12-20T06:15:26;101083.91;;;1.56;100.00
71344;BME280;59146;43.850;25.948;2023-12-20T06:17:51;101119.00;;;1.61;100.00
71344;BME280;59146;43.850;25.948;2023-12-20T06:20:17;101093.66;;;1.92;100.00
71344;BME280;59146;43.850;25.948;2023-12-20T06:22:42;101070.69;;;1.79;100.00
71344;BME280;59146;43.850;25.948;2023-12-20T06:25:08;100996.69;;;1.35;100.00
71344;BME280;59146;43.850;25.948;2023-12-20T06:27:34;101069.66;;;1.89;100.00
71344;BME280;59146;43.850;25.948;2023-12-20T06:29:59;101101.91;;;2.12;100.00
71344;BME280;59146;43.850;25.948;2023-12-20T06:32:25;101004.16;;;1.51;100.00
71344;BME280;59146;43.850;25.948;2023-12-20T06:34:50;101068.97;;;1.79;100.00
71344;BME280;59146;43.850;25.948;2023-12-20T06:37:15;101008.56;;;1.45;100.00
71344;BME280;59146;43.850;25.948;2023-12-20T06:39:41;101057.16;;;1.66;100.00
71344;BME280;59146;43.850;25.948;2023-12-20T06:42:06;101068.19;;;1.74;100.00
71344;BME280;59146;43.850;25.948;2023-12-20T06:44:32;101033.19;;;1.63;100.00
71344;BME280;59146;43.850;25.948;2023-12-20T06:46:57;101050.91;;;1.82;100.00
71344;BME280;59146;43.850;25.948;2023-12-20T06:49:23;101071.94;;;2.05;99.32
71344;BME280;59146;43.850;25.948;2023-12-20T06:51:49;101090.25;;;2.40;98.66
71344;BME280;59146;43.850;25.948;2023-12-20T06:54:14;100838.94;;;1.30;95.50
71344;BME280;59146;43.850;25.948;2023-12-20T06:56:39;101023.75;;;2.58;92.57
71344;BME280;59146;43.850;25.948;2023-12-20T06:59:06;101072.78;;;2.99;92.94
71344;BME280;59146;43.850;25.948;2023-12-20T07:01:32;101079.03;;;3.29;92.30
71344;BME280;59146;43.850;25.948;2023-12-20T07:03:57;100987.66;;;2.96;89.79
71344;BME280;59146;43.850;25.948;2023-12-20T07:06:22;101071.50;;;3.58;88.98
71344;BME280;59146;43.850;25.948;2023-12-20T07:08:49;101042.69;;;3.36;89.29
71344;BME280;59146;43.850;25.948;2023-12-20T07:11:14;101018.38;;;3.08;89.00
71344;BME280;59146;43.850;25.948;2023-12-20T07:13:39;101041.13;;;3.29;89.19
71344;BME280;59146;43.850;25.948;2023-12-20T07:16:05;101053.22;;;3.27;89.96
71344;BME280;59146;43.850;25.948;2023-12-20T07:18:30;101065.91;;;3.38;89.71
71344;BME280;59146;43.850;25.948;2023-12-20T07:20:56;101071.94;;;3.38;90.27
71344;BME280;59146;43.850;25.948;2023-12-20T07:23:21;101074.84;;;3.23;91.70
71344;BME280;59146;43.850;25.948;2023-12-20T07:25:47;101049.97;;;3.19;92.10
71344;BME280;59146;43.850;25.948;2023-12-20T07:28:12;100993.88;;;2.89;92.43
71344;BME280;59146;43.850;25.948;2023-12-20T07:30:38;101062.31;;;3.45;92.51
71344;BME280;59146;43.850;25.948;2023-12-20T07:33:03;101025.53;;;3.35;91.96
71344;BME280;59146;43.850;25.948;2023-12-20T07:35:29;100970.19;;;3.08;92.28
71344;BME280;59146;43.850;25.948;2023-12-20T07:37:54;100995.97;;;3.47;91.18
71344;BME280;59146;43.850;25.948;2023-12-20T07:40:20;100955.63;;;3.43;89.55
71344;BME280;59146;43.850;25.948;2023-12-20T07:42:45;101020.69;;;3.92;89.15
71344;BME280;59146;43.850;25.948;2023-12-20T07:45:11;101032.19;;;4.14;88.66
71344;BME280;59146;43.850;25.948;2023-12-20T07:47:37;100976.09;;;3.84;87.85
71344;BME280;59146;43.850;25.948;2023-12-20T07:50:02;100959.38;;;3.97;87.09
71344;BME280;59146;43.850;25.948;2023-12-20T07:52:29;101018.00;;;4.29;87.61
71344;BME280;59146;43.850;25.948;2023-12-20T07:54:54;100913.47;;;3.74;86.71
71344;BME280;59146;43.850;25.948;2023-12-20T07:57:20;100973.72;;;4.09;86.73
71344;BME280;59146;43.850;25.948;2023-12-20T07:59:46;100979.63;;;4.14;88.96
71344;BME280;59146;43.850;25.948;2023-12-20T08:02:11;101030.91;;;4.61;91.81
71344;BME280;59146;43.850;25.948;2023-12-20T08:04:37;100977.97;;;4.72;97.53
71344;BME280;59146;43.850;25.948;2023-12-20T08:07:03;101006.69;;;4.93;92.15
71344;BME280;59146;43.850;25.948;2023-12-20T08:09:29;100959.31;;;4.61;91.61
71344;BME280;59146;43.850;25.948;2023-12-20T08:11:55;101001.31;;;5.00;92.58
71344;BME280;59146;43.850;25.948;2023-12-20T08:14:20;100981.66;;;4.93;92.88
71344;BME280;59146;43.850;25.948;2023-12-20T08:16:46;101010.56;;;5.07;90.26
71344;BME280;59146;43.850;25.948;2023-12-20T08:19:12;101006.97;;;5.11;90.48
71344;BME280;59146;43.850;25.948;2023-12-20T08:21:38;100945.97;;;4.75;90.27
71344;BME280;59146;43.850;25.948;2023-12-20T08:24:04;100944.94;;;4.80;89.59
71344;BME280;59146;43.850;25.948;2023-12-20T08:26:30;101005.56;;;5.03;88.97
71344;BME280;59146;43.850;25.948;2023-12-20T08:28:55;100900.59;;;4.63;89.65
71344;BME280;59146;43.850;25.948;2023-12-20T08:31:20;101009.50;;;5.42;88.51
71344;BME280;59146;43.850;25.948;2023-12-20T08:33:48;100970.78;;;5.37;86.91
71344;BME280;59146;43.850;25.948;2023-12-20T08:36:14;100946.00;;;5.29;87.75
71344;BME280;59146;43.850;25.948;2023-12-20T08:38:39;100968.50;;;5.54;86.25
71344;BME280;59146;43.850;25.948;2023-12-20T08:41:06;100925.53;;;5.47;84.33
71344;BME280;59146;43.850;25.948;2023-12-20T08:43:32;100985.22;;;5.71;85.98
71344;BME280;59146;43.850;25.948;2023-12-20T08:45:58;100887.00;;;5.12;87.61
71344;BME280;59146;43.850;25.948;2023-12-20T08:48:24;100945.78;;;5.62;87.11
71344;BME280;59146;43.850;25.948;2023-12-20T08:50:49;100831.78;;;4.84;87.61
71344;BME280;59146;43.850;25.948;2023-12-20T08:53:17;100958.44;;;5.72;88.81
71344;BME280;59146;43.850;25.948;2023-12-20T08:55:42;100935.50;;;5.59;89.51
71344;BME280;59146;43.850;25.948;2023-12-20T08:58:08;100895.28;;;5.22;90.04
71344;BME280;59146;43.850;25.948;2023-12-20T09:00:34;100880.72;;;5.19;90.13
71344;BME280;59146;43.850;25.948;2023-12-20T09:02:59;100885.88;;;5.45;89.74
71344;BME280;59146;43.850;25.948;2023-12-20T09:05:25;100867.88;;;5.42;88.49
71344;BME280;59146;43.850;25.948;2023-12-20T09:07:50;100929.53;;;5.84;88.59
71344;BME280;59146;43.850;25.948;2023-12-20T09:10:16;100876.72;;;5.35;89.31
71344;BME280;59146;43.850;25.948;2023-12-20T09:12:47;100853.56;;;5.31;89.51
71344;BME280;59146;43.850;25.948;2023-12-20T09:15:13;100912.28;;;5.81;89.28
71344;BME280;59146;43.850;25.948;2023-12-20T09:17:39;100848.72;;;5.46;89.42
71344;BME280;59146;43.850;25.948;2023-12-20T09:20:05;100918.22;;;5.86;88.44
71344;BME280;59146;43.850;25.948;2023-12-20T09:22:33;100834.34;;;5.38;89.21
71344;BME280;59146;43.850;25.948;2023-12-20T09:24:59;100884.44;;;5.63;89.25
71344;BME280;59146;43.850;25.948;2023-12-20T09:27:25;100837.16;;;5.30;90.42
71344;BME280;59146;43.850;25.948;2023-12-20T09:29:50;100884.16;;;5.46;91.37
71344;BME280;59146;43.850;25.948;2023-12-20T09:32:15;100897.97;;;5.96;90.30
71344;BME280;59146;43.850;25.948;2023-12-20T09:34:41;100817.03;;;5.63;89.51
71344;BME280;59146;43.850;25.948;2023-12-20T09:37:07;100817.94;;;5.62;89.89
71344;BME280;59146;43.850;25.948;2023-12-20T09:39:33;100875.56;;;6.41;87.23
71344;BME280;59146;43.850;25.948;2023-12-20T09:42:03;100841.41;;;6.30;86.64
71344;BME280;59146;43.850;25.948;2023-12-20T09:44:30;100804.00;;;6.12;86.26
71344;BME280;59146;43.850;25.948;2023-12-20T09:46:56;100825.66;;;6.56;85.44
71344;BME280;59146;43.850;25.948;2023-12-20T09:49:22;100828.53;;;6.72;85.24
71344;BME280;59146;43.850;25.948;2023-12-20T09:51:50;100757.34;;;6.34;85.26
71344;BME280;59146;43.850;25.948;2023-12-20T09:54:17;100826.16;;;6.66;85.46
71344;BME280;59146;43.850;25.948;2023-12-20T09:56:43;100777.97;;;6.15;87.10
71344;BME280;59146;43.850;25.948;2023-12-20T09:59:09;100808.97;;;6.18;90.18
71344;BME280;59146;43.850;25.948;2023-12-20T10:01:35;100799.34;;;6.43;87.77
71344;BME280;59146;43.850;25.948;2023-12-20T10:04:05;100748.16;;;6.04;88.11
71344;BME280;59146;43.850;25.948;2023-12-20T10:06:36;100793.19;;;6.46;87.15
71344;BME280;59146;43.850;25.948;2023-12-20T10:09:02;100734.09;;;6.31;86.18
71344;BME280;59146;43.850;25.948;2023-12-20T10:11:27;100713.09;;;6.37;85.50
71344;BME280;59146;43.850;25.948;2023-12-20T10:14:01;100796.94;;;6.82;85.33
71344;BME280;59146;43.850;25.948;2023-12-20T10:16:27;100760.28;;;6.68;85.37
71344;BME280;59146;43.850;25.948;2023-12-20T10:18:56;100720.72;;;6.63;85.67
71344;BME280;59146;43.850;25.948;2023-12-20T10:21:22;100742.69;;;6.96;84.47
71344;BME280;59146;43.850;25.948;2023-12-20T10:23:51;100701.38;;;6.90;83.55
71344;BME280;59146;43.850;25.948;2023-12-20T10:26:21;100742.56;;;7.19;83.09
71344;BME280;59146;43.850;25.948;2023-12-20T10:28:50;100745.78;;;7.45;82.69
71344;BME280;59146;43.850;25.948;2023-12-20T10:33:57;100693.56;;;7.31;83.29
71344;BME280;59146;43.850;25.948;2023-12-20T10:36:23;100701.41;;;7.49;84.20
71344;BME280;59146;43.850;25.948;2023-12-20T10:38:50;100740.13;;;8.11;81.18
71344;BME280;59146;43.850;25.948;2023-12-20T10:41:24;100666.81;;;8.03;78.79
71344;BME280;59146;43.850;25.948;2023-12-20T10:43:51;100734.72;;;8.34;77.31
71344;BME280;59146;43.850;25.948;2023-12-20T10:46:19;100688.75;;;7.97;78.07
71344;BME280;59146;43.850;25.948;2023-12-20T10:48:45;100694.03;;;8.50;77.39
71344;BME280;59146;43.850;25.948;2023-12-20T10:51:11;100696.31;;;8.91;76.52
71344;BME280;59146;43.850;25.948;2023-12-20T10:53:37;100613.63;;;8.27;76.40
71344;BME280;59146;43.850;25.948;2023-12-20T10:56:05;100709.66;;;8.85;76.19
71344;BME280;59146;43.850;25.948;2023-12-20T10:58:33;100521.84;;;7.54;76.94
71344;BME280;59146;43.850;25.948;2023-12-20T11:01:00;100633.09;;;8.54;76.67
71344;BME280;59146;43.850;25.948;2023-12-20T11:03:32;100686.88;;;9.22;75.08
71344;BME280;59146;43.850;25.948;2023-12-20T11:06:09;100666.97;;;9.37;73.39
71344;BME280;59146;43.850;25.948;2023-12-20T11:11:23;100638.53;;;9.17;73.38
71344;BME280;59146;43.850;25.948;2023-12-20T11:13:58;100589.38;;;9.42;73.51
71344;BME280;59146;43.850;25.948;2023-12-20T11:16:25;100683.31;;;10.50;71.35
71344;BME280;59146;43.850;25.948;2023-12-20T11:18:51;100645.44;;;10.43;69.98
71344;BME280;59146;43.850;25.948;2023-12-20T11:21:16;100673.13;;;10.15;70.70
71344;BME280;59146;43.850;25.948;2023-12-20T11:23:42;100668.53;;;9.72;73.06
71344;BME280;59146;43.850;25.948;2023-12-20T11:26:08;100627.81;;;9.85;73.91
71344;BME280;59146;43.850;25.948;2023-12-20T11:28:33;100657.56;;;10.44;71.62
71344;BME280;59146;43.850;25.948;2023-12-20T11:31:01;100681.06;;;10.73;70.71
71344;BME280;59146;43.850;25.948;2023-12-20T11:33:30;100649.97;;;10.55;69.89
71344;BME280;59146;43.850;25.948;2023-12-20T11:35:57;100681.34;;;9.92;73.27
71344;BME280;59146;43.850;25.948;2023-12-20T11:38:23;100677.78;;;9.93;75.07
71344;BME280;59146;43.850;25.948;2023-12-20T11:40:49;100661.13;;;10.43;73.48
71344;BME280;59146;43.850;25.948;2023-12-20T11:43:30;100655.19;;;10.98;71.40
71344;BME280;59146;43.850;25.948;2023-12-20T11:46:02;100607.56;;;10.93;68.73
71344;BME280;59146;43.850;25.948;2023-12-20T11:48:29;100623.09;;;9.92;72.44
71344;BME280;59146;43.850;25.948;2023-12-20T11:50:56;100552.63;;;9.46;74.24
71344;BME280;59146;43.850;25.948;2023-12-20T11:53:21;100571.75;;;9.92;73.35
71344;BME280;59146;43.850;25.948;2023-12-20T11:55:49;100575.59;;;10.16;71.69
71344;BME280;59146;43.850;25.948;2023-12-20T11:58:14;100589.50;;;10.47;70.65
71344;BME280;59146;43.850;25.948;2023-12-20T12:00:44;100616.69;;;9.97;72.53
71344;BME280;59146;43.850;25.948;2023-12-20T12:03:09;100553.09;;;9.22;74.65
71344;BME280;59146;43.850;25.948;2023-12-20T12:05:35;100561.88;;;9.52;73.91
71344;BME280;59146;43.850;25.948;2023-12-20T12:08:01;100485.44;;;9.36;72.42
71344;BME280;59146;43.850;25.948;2023-12-20T12:10:28;100579.03;;;10.01;71.47
71344;BME280;59146;43.850;25.948;2023-12-20T12:12:53;100535.78;;;9.36;72.20
71344;BME280;59146;43.850;25.948;2023-12-20T12:15:19;100518.84;;;8.81;78.25
71344;BME280;59146;43.850;25.948;2023-12-20T12:17:55;100529.91;;;9.17;77.46
71344;BME280;59146;43.850;25.948;2023-12-20T12:20:22;100517.13;;;9.44;75.53
71344;BME280;59146;43.850;25.948;2023-12-20T12:23:01;100584.56;;;9.81;77.22
71344;BME280;59146;43.850;25.948;2023-12-20T12:25:26;100566.31;;;9.50;76.35
71344;BME280;59146;43.850;25.948;2023-12-20T12:27:53;100552.41;;;9.81;73.83
71344;BME280;59146;43.850;25.948;2023-12-20T12:30:19;100495.47;;;9.73;75.02
71344;BME280;59146;43.850;25.948;2023-12-20T12:32:44;100565.72;;;10.51;73.60
71344;BME280;59146;43.850;25.948;2023-12-20T12:35:10;100568.91;;;10.26;70.04
71344;BME280;59146;43.850;25.948;2023-12-20T12:37:38;100563.53;;;10.29;73.37
71344;BME280;59146;43.850;25.948;2023-12-20T12:40:09;100574.06;;;10.58;70.12
71344;BME280;59146;43.850;25.948;2023-12-20T12:42:35;100495.25;;;10.21;68.95
71344;BME280;59146;43.850;25.948;2023-12-20T12:45:01;100465.75;;;9.76;69.67